Time;durP1;ratioP1;P1;durP2;ratioP2;P2;SDS_P1;SDS_P2;PMS_P1;PMS_P2;Temp;Humidity;BMP_temperature;BMP_pressure;BME280_temperature;BME280_humidity;BME280_pressure;Samples;Min_cycle;Max_cycle;Signal;HPM_P1;HPM_P2
2022/09/10 00:00:13;;;;;;;10.07;3.67;;;17.10;99.90;;;;;;6105880;23;20161;-92
2022/09/10 00:02:43;;;;;;;9.23;3.50;;;17.00;99.90;;;;;;6103808;23;20155;-91
2022/09/10 00:05:12;;;;;;;9.20;3.40;;;17.10;99.90;;;;;;6104136;23;20643;-91
2022/09/10 00:07:38;;;;;;;8.53;3.53;;;17.10;99.90;;;;;;6104463;23;20153;-91
2022/09/10 00:10:33;;;;;;;9.37;3.60;;;17.10;99.90;;;;;;6132622;23;20298;-90
2022/09/10 00:16:21;;;;;;;8.77;3.30;;;17.00;99.90;;;;;;6129202;23;20456;-92
2022/09/10 00:18:50;;;;;;;10.20;3.47;;;17.10;99.90;;;;;;6102904;23;20237;-92
2022/09/10 00:21:22;;;;;;;10.37;3.70;;;17.00;99.90;;;;;;6103197;23;20151;-91
2022/09/10 00:27:10;;;;;;;9.83;3.30;;;17.00;99.90;;;;;;6138444;23;20231;-92
2022/09/10 00:29:39;;;;;;;7.77;3.73;;;16.90;99.90;;;;;;6139548;23;20145;-91
2022/09/10 00:32:05;;;;;;;9.90;3.67;;;17.00;99.90;;;;;;6114656;23;20161;-91
2022/09/10 00:34:34;;;;;;;8.27;3.73;;;17.00;99.90;;;;;;6148528;23;20198;-91
2022/09/10 00:37:00;;;;;;;9.77;4.27;;;17.00;99.90;;;;;;6129878;23;20161;-90
2022/09/10 00:39:44;;;;;;;9.00;4.37;;;17.00;99.90;;;;;;6122769;23;20255;-90
2022/09/10 00:42:33;;;;;;;8.33;4.10;;;17.10;99.90;;;;;;6118639;23;20167;-90
2022/09/10 00:48:44;;;;;;;8.47;4.03;;;17.00;99.90;;;;;;6137134;23;20141;-90
2022/09/10 00:51:10;;;;;;;9.77;4.20;;;16.90;99.90;;;;;;6110211;23;20151;-91
2022/09/10 00:57:04;;;;;;;12.03;4.10;;;17.00;99.90;;;;;;6156066;23;20159;-91
2022/09/10 00:59:54;;;;;;;9.87;4.50;;;17.00;99.90;;;;;;6096468;23;20202;-91
2022/09/10 01:06:05;;;;;;;12.43;4.27;;;16.90;99.90;;;;;;6132864;23;20147;-91
2022/09/10 01:08:48;;;;;;;11.07;4.20;;;17.00;99.90;;;;;;6106192;23;20170;-91
2022/09/10 01:11:53;;;;;;;10.43;4.60;;;17.00;99.90;;;;;;6106302;23;20153;-91
2022/09/10 01:14:53;;;;;;;9.23;4.30;;;17.00;99.90;;;;;;6106278;23;20234;-91
2022/09/10 01:18:09;;;;;;;8.83;4.50;;;17.00;99.90;;;;;;6062068;23;20162;-91
2022/09/10 01:21:22;;;;;;;12.87;4.97;;;17.00;99.90;;;;;;6132549;23;20127;-91
2022/09/10 01:24:12;;;;;;;9.60;4.27;;;16.90;99.90;;;;;;6103821;23;20182;-91
2022/09/10 01:26:44;;;;;;;8.93;4.13;;;17.00;99.90;;;;;;6105631;23;20206;-91
2022/09/10 01:36:35;;;;;;;13.30;4.10;;;16.90;99.90;;;;;;6132194;23;20154;-91
2022/09/10 01:42:28;;;;;;;10.07;4.23;;;16.90;99.90;;;;;;6132544;23;20531;-90
2022/09/10 01:44:57;;;;;;;11.70;4.00;;;17.00;99.90;;;;;;6103890;23;20237;-92
2022/09/10 01:48:06;;;;;;;8.40;3.67;;;17.10;99.90;;;;;;6104999;23;20194;-91
2022/09/10 01:50:56;;;;;;;10.87;3.83;;;17.00;99.90;;;;;;6131506;23;20213;-91
2022/09/10 01:57:20;;;;;;;8.17;3.67;;;17.10;99.90;;;;;;6132925;23;20194;-90
2022/09/10 02:00:14;;;;;;;11.03;4.30;;;17.20;99.90;;;;;;6106403;23;20167;-91
2022/09/10 02:03:10;;;;;;;10.90;3.90;;;17.10;99.90;;;;;;6104887;23;20229;-90
2022/09/10 02:05:40;;;;;;;8.67;4.50;;;17.10;99.90;;;;;;6101717;23;20613;-90
2022/09/10 02:08:29;;;;;;;8.67;4.50;;;16.90;99.90;;;;;;6104739;23;20526;-92
2022/09/10 02:18:23;;;;;;;12.47;4.80;;;16.90;99.90;;;;;;6146199;23;20816;-91
2022/09/10 02:20:55;;;;;;;10.93;4.77;;;17.00;99.90;;;;;;6151426;23;20206;-90
2022/09/10 02:23:58;;;;;;;12.73;4.70;;;17.10;99.90;;;;;;6153280;23;20228;-92
2022/09/10 02:27:00;;;;;;;12.40;4.80;;;17.10;99.90;;;;;;6132496;23;20162;-89
2022/09/10 02:30:13;;;;;;;11.07;4.83;;;17.20;99.90;;;;;;6123542;23;20151;-90
2022/09/10 02:32:38;;;;;;;11.07;4.70;;;17.20;99.90;;;;;;6139522;23;20159;-92
2022/09/10 02:35:10;;;;;;;11.50;4.47;;;17.10;99.90;;;;;;6113163;23;20151;-92
2022/09/10 02:41:38;;;;;;;14.63;5.57;;;17.10;99.90;;;;;;6137307;23;20441;-90
2022/09/10 02:44:19;;;;;;;9.43;4.97;;;17.10;99.90;;;;;;6114665;23;20170;-90
2022/09/10 02:47:06;;;;;;;14.17;5.60;;;17.00;99.90;;;;;;6121936;23;20163;-90
2022/09/10 02:49:36;;;;;;;9.73;5.03;;;17.00;99.90;;;;;;6155045;23;20139;-90
2022/09/10 02:52:37;;;;;;;12.40;5.73;;;16.90;99.90;;;;;;6126808;23;20185;-90
2022/09/10 02:58:47;;;;;;;10.20;5.60;;;16.90;99.90;;;;;;6142687;23;20238;-90
2022/09/10 03:01:19;;;;;;;9.53;5.77;;;17.00;99.90;;;;;;6116613;23;20172;-90
2022/09/10 03:03:50;;;;;;;9.53;5.93;;;17.10;99.90;;;;;;6088803;23;20155;-90
2022/09/10 03:06:20;;;;;;;10.50;6.43;;;17.00;99.90;;;;;;6111441;23;20181;-89
2022/09/10 03:12:46;;;;;;;11.77;6.60;;;17.00;99.90;;;;;;6139733;23;20143;-90
2022/09/10 03:15:31;;;;;;;13.77;7.30;;;16.90;99.90;;;;;;6117734;23;20154;-89
2022/09/10 03:18:09;;;;;;;11.77;7.03;;;17.00;99.90;;;;;;6116270;23;20229;-90
2022/09/10 03:20:43;;;;;;;12.30;7.80;;;16.90;99.90;;;;;;6129346;23;20153;-89
2022/09/10 03:23:27;;;;;;;13.23;7.93;;;17.00;99.90;;;;;;6154713;23;20189;-91
2022/09/10 03:26:01;;;;;;;12.83;7.47;;;17.10;99.90;;;;;;6129189;23;20159;-92
2022/09/10 03:29:21;;;;;;;16.43;8.00;;;17.00;99.90;;;;;;6129313;23;20158;-90
2022/09/10 03:31:58;;;;;;;10.37;7.53;;;17.10;99.90;;;;;;6128107;23;20131;-90
2022/09/10 03:37:46;;;;;;;12.50;8.60;;;17.10;99.90;;;;;;6154215;23;20255;-91
2022/09/10 03:40:12;;;;;;;11.37;8.90;;;17.10;99.90;;;;;;6129121;23;20162;-90
2022/09/10 03:43:15;;;;;;;16.07;9.67;;;17.00;99.90;;;;;;6154359;23;20144;-90
2022/09/10 03:46:11;;;;;;;16.07;10.00;;;17.00;99.90;;;;;;6128322;23;20164;-90
2022/09/10 03:48:42;;;;;;;13.80;10.17;;;17.00;99.90;;;;;;6127630;23;20175;-91
2022/09/10 03:51:14;;;;;;;14.63;12.27;;;17.10;99.90;;;;;;6150430;23;20162;-91
2022/09/10 03:54:03;;;;;;;17.17;10.90;;;17.10;99.90;;;;;;6108652;23;20158;-91
2022/09/10 03:57:11;;;;;;;16.83;12.80;;;17.00;99.90;;;;;;6130959;23;20604;-90
2022/09/10 03:59:40;;;;;;;19.23;12.77;;;17.20;99.90;;;;;;6132427;23;20184;-91
2022/09/10 04:02:29;;;;;;;14.47;12.37;;;17.10;99.90;;;;;;6105613;23;20175;-90
2022/09/10 04:04:57;;;;;;;20.23;15.33;;;17.00;99.90;;;;;;6106343;23;20188;-91
2022/09/10 04:08:06;;;;;;;17.33;13.47;;;17.10;99.90;;;;;;6107788;23;20147;-91
2022/09/10 04:10:53;;;;;;;19.13;13.63;;;17.10;99.90;;;;;;6148579;23;20140;-91
2022/09/10 04:13:19;;;;;;;19.40;16.00;;;17.20;99.90;;;;;;6112485;23;20677;-91
2022/09/10 04:16:11;;;;;;;16.80;14.93;;;17.10;99.90;;;;;;6112799;23;20147;-91
2022/09/10 04:18:54;;;;;;;15.90;13.50;;;17.00;99.90;;;;;;6127090;23;20171;-92
2022/09/10 04:24:43;;;;;;;17.03;15.10;;;17.00;99.90;;;;;;6141179;23;20169;-90
2022/09/10 04:27:10;;;;;;;20.20;16.17;;;17.20;99.90;;;;;;6106309;23;20160;-91
2022/09/10 04:30:16;;;;;;;18.67;16.70;;;17.10;99.90;;;;;;6111535;23;20162;-91
2022/09/10 04:32:43;;;;;;;20.80;16.67;;;17.00;99.90;;;;;;6111203;23;20151;-92
2022/09/10 04:35:43;;;;;;;21.87;17.70;;;17.10;99.90;;;;;;6140267;23;20245;-91
2022/09/10 04:45:22;;;;;;;23.10;20.43;;;17.00;99.90;;;;;;6144583;23;20135;-91
2022/09/10 04:51:14;;;;;;;23.13;20.73;;;17.00;99.90;;;;;;6133541;23;20176;-92
2022/09/10 04:53:50;;;;;;;27.43;22.37;;;17.00;99.90;;;;;;6113113;23;20151;-92
2022/09/10 04:57:03;;;;;;;25.20;20.73;;;17.10;99.90;;;;;;6115498;23;20512;-91
2022/09/10 04:59:37;;;;;;;25.23;22.63;;;17.00;99.90;;;;;;6128964;23;20243;-90
2022/09/10 05:02:08;;;;;;;27.03;22.77;;;17.10;99.90;;;;;;6107039;23;20194;-91
2022/09/10 05:04:34;;;;;;;27.40;23.30;;;17.10;99.90;;;;;;6111760;23;20231;-91
2022/09/10 05:07:02;;;;;;;28.03;23.13;;;17.20;99.90;;;;;;6113484;23;20163;-91
2022/09/10 05:09:48;;;;;;;26.87;23.67;;;17.10;99.90;;;;;;6109701;23;20168;-87
2022/09/10 05:12:49;;;;;;;27.77;24.77;;;17.10;99.90;;;;;;6110436;23;20165;-90
2022/09/10 05:15:46;;;;;;;31.10;23.90;;;17.00;99.90;;;;;;6109162;23;20230;-90
2022/09/10 05:18:15;;;;;;;25.60;22.87;;;17.00;99.90;;;;;;6108622;23;20194;-90
2022/09/10 05:20:44;;;;;;;27.87;24.13;;;16.90;99.90;;;;;;6138992;23;20286;-90
2022/09/10 05:23:16;;;;;;;29.67;25.43;;;17.00;99.90;;;;;;6124098;23;20176;-90
2022/09/10 05:25:49;;;;;;;32.00;26.33;;;17.00;99.90;;;;;;6125617;23;20128;-90
2022/09/10 05:28:19;;;;;;;27.77;24.70;;;17.00;99.90;;;;;;6080229;23;20162;-90
2022/09/10 05:34:10;;;;;;;27.30;24.40;;;16.90;99.90;;;;;;6143903;23;20166;-91
2022/09/10 05:37:25;;;;;;;28.70;25.50;;;17.00;99.90;;;;;;6113364;23;20159;-90
2022/09/10 05:39:51;;;;;;;30.33;25.20;;;17.00;99.90;;;;;;6135553;23;20261;-90
2022/09/10 05:42:23;;;;;;;29.53;25.70;;;16.90;99.90;;;;;;6131964;23;20153;-90
2022/09/10 05:45:09;;;;;;;29.27;25.70;;;16.90;99.90;;;;;;6105616;23;20151;-90
2022/09/10 05:47:39;;;;;;;31.27;26.47;;;17.00;99.90;;;;;;6106047;23;20147;-91
2022/09/10 05:50:06;;;;;;;30.03;26.77;;;17.00;99.90;;;;;;6105233;23;20186;-91
2022/09/10 05:53:09;;;;;;;30.87;26.20;;;16.90;99.90;;;;;;6104243;23;20162;-91
2022/09/10 05:55:54;;;;;;;28.80;25.60;;;17.00;99.90;;;;;;6127695;23;20154;-92
2022/09/10 05:58:33;;;;;;;30.33;25.67;;;17.00;99.90;;;;;;6103827;23;20214;-92
2022/09/10 06:01:00;;;;;;;30.03;26.20;;;16.80;99.90;;;;;;6106706;23;20150;-91
2022/09/10 06:03:29;;;;;;;31.90;26.37;;;16.80;99.90;;;;;;6131726;23;20154;-91
2022/09/10 06:05:58;;;;;;;29.07;25.57;;;16.90;99.90;;;;;;6105463;23;20185;-90
2022/09/10 06:08:23;;;;;;;29.60;26.07;;;17.10;99.90;;;;;;6105366;23;20146;-90
2022/09/10 06:11:13;;;;;;;27.03;24.13;;;17.00;99.90;;;;;;6106254;23;20155;-90
2022/09/10 06:13:41;;;;;;;27.30;24.43;;;17.00;99.90;;;;;;6106675;23;20155;-91
2022/09/10 06:16:08;;;;;;;27.03;24.13;;;17.00;99.90;;;;;;6127569;23;20163;-90
2022/09/10 06:18:53;;;;;;;27.33;23.73;;;17.10;99.90;;;;;;6123255;23;20206;-90
2022/09/10 06:21:24;;;;;;;27.60;23.33;;;17.10;99.90;;;;;;6123504;23;20661;-92
2022/09/10 06:23:56;;;;;;;26.27;23.20;;;17.00;99.90;;;;;;6106863;23;20156;-91
2022/09/10 06:26:33;;;;;;;27.83;23.87;;;17.00;99.90;;;;;;6106366;23;20151;-90
2022/09/10 06:28:59;;;;;;;26.57;22.93;;;17.00;99.90;;;;;;6105498;23;20588;-90
2022/09/10 06:31:28;;;;;;;25.47;22.37;;;17.00;99.90;;;;;;6106883;23;20143;-91
2022/09/10 06:34:17;;;;;;;27.63;23.67;;;17.10;99.90;;;;;;6111334;23;20238;-91
2022/09/10 06:36:49;;;;;;;27.37;22.90;;;17.10;99.90;;;;;;6127806;23;20171;-90
2022/09/10 06:39:43;;;;;;;27.47;23.37;;;17.10;99.90;;;;;;6120979;23;20229;-89
2022/09/10 06:42:13;;;;;;;25.10;22.40;;;17.10;99.90;;;;;;6114947;23;20240;-90
2022/09/10 06:44:51;;;;;;;25.83;23.13;;;17.10;99.90;;;;;;6108334;23;20157;-91
2022/09/10 06:47:56;;;;;;;25.37;22.47;;;17.20;99.90;;;;;;6107065;23;20159;-92
2022/09/10 06:55:58;;;;;;;24.23;21.73;;;17.30;99.90;;;;;;5116237;28;20533;-91
2022/09/10 07:01:51;;;;;;;25.10;22.53;;;17.40;99.90;;;;;;5120578;28;20167;-91
2022/09/10 07:04:46;;;;;;;26.07;23.33;;;17.40;99.90;;;;;;5099328;28;20167;-91
2022/09/10 07:07:19;;;;;;;25.90;21.03;;;17.30;99.90;;;;;;5098658;28;20172;-91
2022/09/10 07:10:11;;;;;;;24.13;21.63;;;17.40;99.90;;;;;;5097139;28;20193;-91
2022/09/10 07:12:37;;;;;;;28.30;22.30;;;17.50;99.90;;;;;;5098136;28;20618;-90
2022/09/10 07:15:03;;;;;;;23.83;21.40;;;17.50;99.90;;;;;;5095506;28;20167;-88
2022/09/10 07:17:34;;;;;;;23.93;21.53;;;17.40;99.90;;;;;;5096545;28;20214;-89
2022/09/10 07:20:19;;;;;;;25.20;20.83;;;17.40;99.90;;;;;;5096851;28;20208;-90
2022/09/10 07:23:14;;;;;;;24.50;21.07;;;17.40;99.90;;;;;;5120072;28;20172;-93
2022/09/10 07:26:21;;;;;;;26.97;21.20;;;17.40;99.90;;;;;;5110739;28;20175;-91
2022/09/10 07:29:17;;;;;;;26.20;20.03;;;17.50;99.90;;;;;;5101994;28;20186;-89
2022/09/10 07:32:03;;;;;;;22.83;20.07;;;17.50;99.90;;;;;;5117442;28;20210;-89
2022/09/10 07:34:51;;;;;;;22.50;20.13;;;17.50;99.90;;;;;;5134675;28;20166;-86
2022/09/10 07:37:52;;;;;;;;;;;;;;;;;;;;;
2022/09/10 07:40:31;;;;;;;24.43;19.17;;;17.70;99.90;;;;;;5113069;28;20153;-94
2022/09/10 07:43:03;;;;;;;20.33;18.33;;;17.80;99.90;;;;;;5092686;28;20637;-91
2022/09/10 07:45:32;;;;;;;20.07;18.07;;;17.60;99.90;;;;;;5079322;28;20869;-91
2022/09/10 07:47:59;;;;;;;24.20;18.30;;;17.60;99.90;;;;;;5077645;28;20604;-89
2022/09/10 07:54:09;;;;;;;22.03;16.73;;;17.70;99.90;;;;;;5105526;28;20170;-94
2022/09/10 07:56:41;;;;;;;18.97;17.07;;;17.70;99.90;;;;;;5081575;28;20252;-89
2022/09/10 07:59:40;;;;;;;19.67;17.60;;;17.70;99.90;;;;;;5078426;28;20264;-87
2022/09/10 08:02:13;;;;;;;20.57;17.17;;;17.80;99.90;;;;;;5074155;28;20184;-88
2022/09/10 08:04:39;;;;;;;21.10;18.47;;;17.90;99.90;;;;;;5063210;28;20183;-94
2022/09/10 08:07:06;;;;;;;19.90;17.80;;;18.10;99.00;;;;;;5068100;28;20192;-89
2022/09/10 08:09:37;;;;;;;21.83;17.87;;;18.00;99.00;;;;;;5058288;28;20189;-91
2022/09/10 08:12:06;;;;;;;22.00;18.73;;;18.10;99.80;;;;;;5058319;28;20235;-87
2022/09/10 08:14:38;;;;;;;20.90;18.53;;;17.80;99.90;;;;;;5047555;28;20177;-88
2022/09/10 08:17:07;;;;;;;21.63;18.70;;;17.90;99.90;;;;;;5042742;28;20161;-89
2022/09/10 08:20:03;;;;;;;24.17;18.97;;;17.80;99.90;;;;;;5046953;28;20177;-89
2022/09/10 08:22:57;;;;;;;20.47;18.23;;;17.90;99.90;;;;;;5042884;28;20201;-89
2022/09/10 08:26:23;;;;;;;23.83;18.57;;;18.00;99.90;;;;;;5041866;28;20188;-88
2022/09/10 08:28:57;;;;;;;19.27;17.13;;;18.10;99.90;;;;;;5043567;28;20646;-90
2022/09/10 08:31:25;;;;;;;20.97;17.43;;;18.10;99.90;;;;;;5042415;28;20229;-90
2022/09/10 08:33:53;;;;;;;22.20;18.53;;;18.10;99.50;;;;;;5041267;28;20226;-89
2022/09/10 08:36:20;;;;;;;20.57;18.37;;;18.10;99.10;;;;;;5062949;28;20173;-90
2022/09/10 08:38:49;;;;;;;20.30;18.17;;;18.10;98.90;;;;;;5046534;28;20181;-90
2022/09/10 08:41:37;;;;;;;21.20;18.00;;;18.20;99.30;;;;;;5042373;28;20632;-87
2022/09/10 08:44:19;;;;;;;17.03;15.23;;;18.20;98.30;;;;;;5041879;28;20176;-89
2022/09/10 08:46:51;;;;;;;20.40;16.23;;;18.30;96.50;;;;;;5054239;28;20233;-89
2022/09/10 08:49:35;;;;;;;17.93;15.30;;;18.30;96.40;;;;;;5055103;28;20195;-90
2022/09/10 08:52:37;;;;;;;18.23;16.23;;;18.30;95.90;;;;;;5056561;28;20262;-90
2022/09/10 08:55:17;;;;;;;21.13;16.27;;;18.30;96.50;;;;;;5021615;28;20207;-96
2022/09/10 08:58:12;;;;;;;14.40;12.90;;;18.50;96.40;;;;;;5082830;28;20175;-90
2022/09/10 09:00:43;;;;;;;16.40;13.83;;;18.60;93.70;;;;;;5062622;28;20183;-92
2022/09/10 09:03:38;;;;;;;19.13;14.43;;;18.50;91.40;;;;;;5064365;28;20166;-92
2022/09/10 09:06:46;;;;;;;18.03;13.53;;;18.40;93.00;;;;;;5082507;28;20150;-91
2022/09/10 09:09:15;;;;;;;15.60;13.50;;;18.50;92.70;;;;;;5072241;28;20167;-89
2022/09/10 09:15:18;;;;;;;14.33;12.73;;;18.50;93.00;;;;;;5084555;28;20234;-91
2022/09/10 09:18:11;;;;;;;15.77;13.50;;;18.50;91.80;;;;;;5065390;28;20160;-91
2022/09/10 09:24:00;;;;;;;14.87;12.60;;;18.70;92.10;;;;;;5098008;28;20184;-89
2022/09/10 09:26:33;;;;;;;15.50;12.43;;;18.90;89.70;;;;;;5080512;28;20166;-90
2022/09/10 09:29:49;;;;;;;13.20;11.83;;;19.10;86.40;;;;;;5081581;28;20169;-89
2022/09/10 09:32:17;;;;;;;13.43;11.10;;;19.20;81.50;;;;;;5081689;28;20192;-89
2022/09/10 09:38:36;;;;;;;12.77;11.47;;;19.40;76.50;;;;;;5096781;28;20235;-87
2022/09/10 09:41:07;;;;;;;12.83;11.23;;;19.20;73.00;;;;;;5074397;28;20187;-89
2022/09/10 09:43:54;;;;;;;11.53;10.33;;;19.10;74.90;;;;;;5070365;28;20167;-85
2022/09/10 09:46:23;;;;;;;13.80;10.10;;;19.30;70.80;;;;;;5081935;28;20172;-87
2022/09/10 09:48:54;;;;;;;14.63;9.70;;;19.40;70.20;;;;;;5071464;28;20446;-86
2022/09/10 09:51:20;;;;;;;10.60;9.37;;;19.60;62.50;;;;;;5068329;28;20241;-85
2022/09/10 09:53:53;;;;;;;13.10;9.80;;;19.50;61.50;;;;;;5080613;28;20159;-86
2022/09/10 09:56:30;;;;;;;15.53;10.47;;;19.30;63.50;;;;;;5065188;28;20195;-86
2022/09/10 09:59:21;;;;;;;10.70;9.23;;;19.30;68.50;;;;;;5063965;28;20174;-85
2022/09/10 10:02:25;;;;;;;10.90;9.60;;;19.30;67.70;;;;;;5064469;28;20164;-87
2022/09/10 10:05:21;;;;;;;13.40;8.70;;;19.30;63.70;;;;;;5065272;28;20164;-88
2022/09/10 10:08:01;;;;;;;11.80;8.07;;;19.50;62.10;;;;;;5089380;28;20179;-92
2022/09/10 10:11:09;;;;;;;;;;;;;;;;;;;;;
2022/09/10 10:27:52;;;;;;;8.30;5.97;;;20.10;32.40;;;;;;4846105;29;20198;-91
2022/09/10 10:30:40;;;;;;;7.97;4.83;;;20.20;26.60;;;;;;4827868;29;20706;-90
2022/09/10 10:33:30;;;;;;;8.33;4.73;;;20.30;22.30;;;;;;4956463;28;20212;-90
2022/09/10 10:36:51;;;;;;;7.93;4.43;;;20.50;15.70;;;;;;5039638;28;20638;-91
2022/09/10 10:43:09;;;;;;;8.27;4.53;;;20.40;11.10;;;;;;5038193;28;20232;-89
2022/09/10 10:46:14;;;;;;;5.50;4.47;;;20.50;15.10;;;;;;4957947;29;20262;-90
2022/09/10 10:48:57;;;;;;;11.20;4.77;;;20.60;10.60;;;;;;4941955;29;20318;-91
2022/09/10 11:02:35;;;;;;;9.57;5.90;;;20.30;20.50;;;;;;5038134;28;20214;-90
2022/09/10 11:08:39;;;;;;;6.93;5.30;;;20.20;28.20;;;;;;5038624;28;20576;-90
2022/09/10 11:18:33;;;;;;;9.03;5.90;;;20.30;14.70;;;;;;5037266;28;20168;-90
2022/09/10 11:28:04;;;;;;;;;;;;;;;;;;;;;
2022/09/10 11:38:31;;;;;;;7.63;4.57;;;20.70;9.00;;;;;;4937944;29;20681;-91
2022/09/10 11:55:32;;;;;;;9.80;5.40;;;21.20;1.00;;;;;;4979469;28;20168;-91
2022/09/10 12:27:54;;;;;;;6.73;2.47;;;21.60;1.00;;;;;;5026407;26;20213;-92
2022/09/10 12:30:48;;;;;;;5.53;2.57;;;21.60;1.00;;;;;;4994629;28;20233;-90
2022/09/10 12:37:33;;;;;;;6.70;3.30;;;21.40;1.00;;;;;;4950640;29;20217;-91
2022/09/10 12:40:39;;;;;;;7.47;2.50;;;21.60;1.00;;;;;;4933088;29;20195;-91
2022/09/10 13:07:53;;;;;;;;;;;;;;;;;;;;;
2022/09/10 13:14:09;;;;;;;5.87;2.70;;;21.10;1.00;;;;;;4942557;29;20287;-91
2022/09/10 13:27:39;;;;;;;8.10;3.50;;;20.80;1.00;;;;;;5017980;28;20214;-91
2022/09/10 13:30:29;;;;;;;6.00;3.00;;;20.80;1.00;;;;;;5020499;28;20180;-92
2022/09/10 13:33:25;;;;;;;8.03;3.00;;;20.70;1.00;;;;;;5024744;28;20216;-93
2022/09/10 13:39:59;;;;;;;7.20;3.57;;;20.50;9.70;;;;;;5025137;28;20252;-91
2022/09/10 13:43:21;;;;;;;10.93;7.33;;;20.60;15.70;;;;;;5003228;28;20175;-91
2022/09/10 13:46:43;;;;;;;7.27;4.80;;;20.60;13.60;;;;;;5002787;28;20174;-91
2022/09/10 13:56:23;;;;;;;4.70;2.90;;;20.40;17.30;;;;;;4966323;29;20188;-90
2022/09/10 13:59:00;;;;;;;4.93;2.87;;;20.50;14.70;;;;;;4945099;29;20292;-91
2022/09/10 14:01:51;;;;;;;5.97;3.33;;;20.30;14.20;;;;;;4944143;29;20273;-92
2022/09/10 14:04:45;;;;;;;5.60;3.90;;;20.40;14.90;;;;;;4957119;29;20186;-91
2022/09/10 14:07:27;;;;;;;7.60;4.17;;;20.40;15.30;;;;;;4959240;28;20242;-90
2022/09/10 14:10:08;;;;;;;5.03;3.20;;;20.40;14.30;;;;;;4961462;28;20183;-91
2022/09/10 14:12:53;;;;;;;8.03;3.83;;;20.30;18.10;;;;;;4945481;29;20699;-92
2022/09/10 14:19:37;;;;;;;8.57;3.97;;;20.20;29.30;;;;;;4956302;28;20176;-92
2022/09/10 14:22:36;;;;;;;6.00;4.10;;;20.20;36.20;;;;;;5019001;28;20258;-91
2022/09/10 14:25:25;;;;;;;10.33;4.63;;;20.00;43.10;;;;;;5018947;28;20304;-91
2022/09/10 14:28:59;;;;;;;9.07;4.33;;;20.10;42.50;;;;;;5012060;28;20205;-92
2022/09/10 14:35:54;;;;;;;8.40;5.47;;;19.80;53.70;;;;;;4961399;28;20254;-91
2022/09/10 14:42:28;;;;;;;7.37;4.83;;;19.60;56.80;;;;;;4993550;28;20256;-90
2022/09/10 14:45:07;;;;;;;8.47;4.80;;;19.50;64.70;;;;;;4991007;28;20188;-89
2022/09/10 15:04:45;;;;;;;7.63;3.90;;;19.70;63.10;;;;;;5033266;28;20201;-90
2022/09/10 15:20:34;;;;;;;8.37;3.90;;;20.50;45.70;;;;;;4927415;29;20182;-91
2022/09/10 15:23:30;;;;;;;10.40;4.30;;;20.40;46.40;;;;;;4919052;29;20245;-89
2022/09/10 15:29:36;;;;;;;8.73;4.60;;;20.50;48.10;;;;;;4963594;29;20168;-90
2022/09/10 15:47:34;;;;;;;;;;;;;;;;;;;;;
2022/09/10 15:54:08;;;;;;;;;;;;;;;;;;;;;
2022/09/10 15:57:34;;;;;;;12.07;7.43;;;20.40;51.00;;;;;;4782257;29;20290;-90
2022/09/10 16:00:53;;;;;;;12.47;5.70;;;20.40;52.80;;;;;;4842852;29;20195;-89
2022/09/10 16:11:05;;;;;;;9.33;5.77;;;20.30;59.70;;;;;;4812874;29;20181;-91
2022/09/10 16:29:05;;;;;;;9.07;5.40;;;21.20;41.30;;;;;;4951002;28;20196;-89
2022/09/10 16:32:18;;;;;;;12.30;6.27;;;20.90;45.80;;;;;;4907413;28;20313;-90
2022/09/10 16:48:45;;;;;;;8.87;5.10;;;20.70;55.00;;;;;;4925556;29;20185;-92
2022/09/10 17:01:58;;;;;;;7.57;4.07;;;21.60;19.20;;;;;;5007064;23;20232;-92
2022/09/10 17:04:49;;;;;;;8.27;4.07;;;21.10;29.10;;;;;;5032143;28;20186;-91
2022/09/10 17:11:15;;;;;;;12.43;7.77;;;20.90;37.20;;;;;;5026377;28;20201;-92
2022/09/10 17:14:43;;;;;;;9.27;4.90;;;21.00;38.10;;;;;;4997099;28;20221;-91
2022/09/10 17:17:50;;;;;;;7.93;5.03;;;20.90;39.60;;;;;;4922195;29;20184;-90
2022/09/10 17:28:17;;;;;;;;;;;;;;;;;;;;;
2022/09/10 17:54:12;;;;;;;7.10;5.63;;;19.80;90.80;;;;;;5017008;28;20223;-91
2022/09/10 18:06:50;;;;;;;10.50;6.87;;;19.80;88.20;;;;;;5017416;28;20194;-92
2022/09/10 18:10:17;;;;;;;;;;;;;;;;;;;;;
2022/09/10 18:26:43;;;;;;;;;;;;;;;;;;;;;
2022/09/10 18:29:37;;;;;;;9.07;6.43;;;19.50;92.50;;;;;;4898751;29;20252;-92
2022/09/10 18:32:57;;;;;;;;;;;;;;;;;;;;;
2022/09/10 18:57:29;;;;;;;;;;;;;;;;;;;;;
2022/09/10 19:00:25;;;;;;;9.93;7.00;;;19.30;91.70;;;;;;4773947;30;20310;-92
2022/09/10 19:03:33;;;;;;;9.30;6.53;;;19.30;91.70;;;;;;4798220;29;20331;-93
2022/09/10 19:06:35;;;;;;;12.17;7.27;;;19.20;92.20;;;;;;4812440;29;20188;-92
2022/09/10 19:13:24;;;;;;;10.00;6.60;;;19.30;92.20;;;;;;4840707;29;20276;-92
2022/09/10 19:16:12;;;;;;;12.47;7.20;;;19.30;92.40;;;;;;4855601;29;20280;-92
2022/09/10 19:19:01;;;;;;;;;;;;;;;;;;;;;
2022/09/10 19:22:39;;;;;;;10.27;7.73;;;19.30;92.30;;;;;;4864757;29;20258;-91
2022/09/10 19:25:10;;;;;;;9.60;7.70;;;19.30;92.40;;;;;;4977346;28;20194;-92
2022/09/10 19:31:54;;;;;;;12.77;7.97;;;19.30;93.40;;;;;;4916269;28;20229;-92
2022/09/10 19:34:36;;;;;;;12.80;8.57;;;19.20;93.60;;;;;;4959813;28;20260;-92
2022/09/10 19:45:28;;;;;;;14.23;8.80;;;19.10;94.50;;;;;;4888373;28;20246;-91
2022/09/10 19:48:31;;;;;;;;;;;;;;;;;;;;;
2022/09/10 19:51:42;;;;;;;11.27;8.50;;;19.10;94.20;;;;;;4975309;28;20273;-92
2022/09/10 19:55:07;;;;;;;12.80;8.40;;;19.00;95.60;;;;;;4943238;28;20259;-91
2022/09/10 19:58:17;;;;;;;13.50;8.80;;;19.00;95.90;;;;;;4924177;29;20282;-92
2022/09/10 20:00:59;;;;;;;14.40;9.07;;;18.90;95.50;;;;;;4960310;28;20245;-91
2022/09/10 20:04:03;;;;;;;11.77;9.27;;;18.90;96.50;;;;;;4929609;29;20176;-91
2022/09/10 20:10:43;;;;;;;13.10;8.67;;;19.00;96.40;;;;;;4930936;29;20553;-92
2022/09/10 20:13:39;;;;;;;;;;;;;;;;;;;;;
2022/09/10 20:16:48;;;;;;;13.67;9.23;;;19.00;96.20;;;;;;4921498;29;20245;-91
2022/09/10 20:19:32;;;;;;;14.27;9.13;;;19.00;96.50;;;;;;4905856;29;20187;-91
2022/09/10 20:22:34;;;;;;;13.67;9.17;;;19.00;96.10;;;;;;4905005;29;20253;-90
2022/09/10 20:25:47;;;;;;;16.07;10.53;;;19.00;96.90;;;;;;4931926;29;20217;-92
2022/09/10 20:28:58;;;;;;;13.27;9.53;;;18.90;96.50;;;;;;4924783;29;20192;-92
2022/09/10 20:32:07;;;;;;;13.17;9.57;;;18.80;97.30;;;;;;4906743;29;20229;-91
2022/09/10 20:38:45;;;;;;;13.43;10.00;;;18.70;98.80;;;;;;4881546;29;20201;-91
2022/09/10 20:42:29;;;;;;;10.83;9.70;;;18.70;99.20;;;;;;4837973;29;20176;-90
2022/09/10 20:52:43;;;;;;;13.23;10.07;;;18.50;99.90;;;;;;4685734;30;20285;-90
2022/09/10 20:55:40;;;;;;;13.43;9.17;;;18.50;99.90;;;;;;4687337;30;20728;-92
2022/09/10 20:59:01;;;;;;;13.40;9.80;;;18.50;99.90;;;;;;4695812;30;20233;-91
2022/09/10 21:02:22;;;;;;;15.37;10.20;;;18.50;99.90;;;;;;4772328;30;20201;-90
2022/09/10 21:05:09;;;;;;;15.87;10.13;;;18.60;99.90;;;;;;4751658;30;20209;-92
2022/09/10 21:11:31;;;;;;;15.63;10.10;;;18.70;99.90;;;;;;4842353;29;20239;-92
2022/09/10 21:17:37;;;;;;;18.63;11.80;;;18.70;99.90;;;;;;4848147;29;20241;-92
2022/09/10 21:21:00;;;;;;;17.63;10.97;;;18.80;99.90;;;;;;4786038;29;20207;-92
2022/09/10 21:30:51;;;;;;;;;;;;;;;;;;;;;
2022/09/10 21:33:47;;;;;;;16.90;11.10;;;19.00;98.90;;;;;;4964110;29;20262;-91
2022/09/10 21:37:10;;;;;;;12.53;10.30;;;19.00;98.90;;;;;;4963334;28;20212;-92
2022/09/10 21:40:32;;;;;;;16.23;11.27;;;19.00;98.80;;;;;;4925574;29;20190;-91
2022/09/10 21:43:51;;;;;;;13.13;11.20;;;19.00;97.80;;;;;;4963682;28;20284;-92
2022/09/10 21:46:39;;;;;;;15.10;10.13;;;18.90;98.50;;;;;;4967138;28;20215;-92
2022/09/10 21:49:54;;;;;;;14.90;11.60;;;18.80;99.30;;;;;;4977763;28;20183;-92
2022/09/10 21:52:51;;;;;;;12.70;10.57;;;18.50;99.90;;;;;;4970343;29;20217;-91
2022/09/10 21:55:39;;;;;;;16.60;11.70;;;18.40;99.90;;;;;;4968985;28;20208;-92
2022/09/10 21:58:57;;;;;;;18.03;10.83;;;18.30;99.90;;;;;;4962137;29;20187;-92
2022/09/10 22:01:27;;;;;;;13.53;10.47;;;18.30;99.90;;;;;;4981096;28;20179;-92
2022/09/10 22:07:19;;;;;;;15.70;11.37;;;18.30;99.90;;;;;;4962094;28;20194;-92
2022/09/10 22:14:19;;;;;;;15.03;11.10;;;18.30;99.90;;;;;;4943985;29;20223;-91
2022/09/10 22:16:43;;;;;;;13.53;10.93;;;18.40;99.90;;;;;;4969908;28;20171;-92
2022/09/10 22:23:21;;;;;;;13.10;11.30;;;18.50;99.90;;;;;;4958962;28;20188;-93
2022/09/10 22:26:23;;;;;;;14.17;11.70;;;18.60;99.90;;;;;;4951203;28;20256;-92
2022/09/10 22:29:39;;;;;;;;;;;;;;;;;;;;;
2022/09/10 22:36:22;;;;;;;;;;;;;;;;;;;;;
2022/09/10 22:39:08;;;;;;;15.17;11.80;;;18.50;99.90;;;;;;4939608;29;20213;-92
2022/09/10 22:45:41;;;;;;;14.33;12.17;;;18.50;99.90;;;;;;4930812;29;20173;-92
2022/09/10 22:52:41;;;;;;;17.03;12.20;;;18.40;99.90;;;;;;4913557;28;20310;-90
2022/09/10 22:56:02;;;;;;;;;;;;;;;;;;;;;
2022/09/10 23:08:59;;;;;;;14.83;12.60;;;18.10;99.90;;;;;;4834813;29;20235;-91